ADDS METAR Data INFO
IDs: Format: Raw Decoded Include TAF

Data at: 0924 UTC 13 Dec 2017

KAMN 130916Z AUTO 20003KT 10SM OVC038 M09/M10 A2982 RMK AO2 T10881105
KAMN 130859Z AUTO 00000KT 10SM OVC038 M09/M10 A2982 RMK AO2 T10911105
KAMN 130839Z AUTO 00000KT 10SM OVC036 M09/M10 A2982 RMK AO2 T10881105
KAMN 130819Z AUTO 00000KT 10SM OVC036 M09/M10 A2983 RMK AO2 T10901105
KAMN 130759Z AUTO 00000KT 10SM OVC036 M09/M11 A2983 RMK AO2 T10911109
KAMN 130739Z AUTO 00000KT 10SM OVC036 M09/M11 A2983 RMK AO2 T10931108
KAMN 130719Z AUTO 20004KT 10SM OVC036 M09/M11 A2983 RMK AO2 T10951110
KAMN 130659Z AUTO 21003KT 10SM OVC036 M10/M11 A2984 RMK AO2 T10961111
KAMN 130639Z AUTO 07003KT 10SM OVC036 M10/M11 A2984 RMK AO2 T10971115
KAMN 130619Z AUTO 00000KT 10SM OVC038 M10/M11 A2985 RMK AO2 T10981115
KAMN 130558Z AUTO 00000KT 10SM OVC040 M10/M12 A2986 RMK AO2 T11031120 11081 21134 410201134
KAMN 130538Z AUTO 00000KT 10SM OVC042 M10/M12 A2986 RMK AO2 T11051123
KAMN 130518Z AUTO 00000KT 10SM OVC042 M11/M12 A2987 RMK AO2 T11101125
KAMN 130458Z AUTO 00000KT 10SM OVC042 M13/M14 A2987 RMK AO2 T11271138
KAMN 130438Z AUTO 00000KT 10SM BKN046 M13/M14 A2988 RMK AO2 T11311143
KAMN 130419Z AUTO 28003KT 10SM CLR M12/M13 A2989 RMK AO2 T11191130
KAMN 130359Z AUTO 00000KT 10SM SCT029 M12/M13 A2989 RMK AO2 T11171134
KAMN 130338Z AUTO 00000KT 10SM SCT027 SCT048 M11/M13 A2989 RMK AO2 T11071126
KAMN 130318Z AUTO 27004KT 10SM SCT024 SCT029 OVC048 M10/M12 A2990 RMK AO2 T10971120
KAMN 130258Z AUTO 27004KT 10SM SCT029 BKN050 M10/M12 A2990 RMK AO2 T10981120
KAMN 130238Z AUTO 29005KT 10SM SCT027 OVC050 M09/M12 A2990 RMK AO2 T10921116
KAMN 130218Z AUTO 28006KT 10SM SCT027 OVC050 M09/M11 A2990 RMK AO2 T10901115
KAMN 130158Z AUTO 28008KT 10SM BKN025 OVC055 M09/M11 A2990 RMK AO2 T10881114
KAMN 130138Z AUTO 28007KT 10SM OVC027 M08/M11 A2991 RMK AO2 T10851109
KAMN 130118Z AUTO 28005KT 10SM -SN BKN029 OVC034 M08/M10 A2991 RMK AO2 T10851103
KAMN 130058Z AUTO 27006KT 4SM -SN BKN029 BKN034 OVC060 M08/M10 A2991 RMK AO2 T10851104
KAMN 130038Z AUTO 27005KT 7SM -SN SCT029 SCT037 OVC060 M08/M11 A2991 RMK AO2 T10851110
KAMN 130017Z AUTO 29008KT 10SM SCT033 SCT042 OVC060 M08/M11 A2991 RMK AO2 T10821115
KAMN 122357Z AUTO 29006KT 10SM OVC060 M08/M12 A2991 RMK AO2 T10821120 11065 21083
KAMN 122337Z AUTO 30008KT 10SM SCT041 OVC060 M08/M12 A2991 RMK AO2 T10831121
KAMN 122317Z AUTO 29008KT 10SM SCT041 OVC050 M08/M12 A2991 RMK AO2 T10821125
KAMN 122257Z AUTO 30008KT 7SM -SN SCT037 OVC055 M08/M12 A2990 RMK AO2 T10811125
KAMN 122237Z AUTO 30009KT 10SM OVC060 M08/M13 A2990 RMK AO2 T10801131
KAMN 122217Z AUTO 31007KT 10SM OVC060 M08/M15 A2990 RMK AO2 T10801146
KAMN 122157Z AUTO 31010KT 10SM SCT041 SCT047 OVC060 M08/M14 A2989 RMK AO2 T10781143
KAMN 122137Z AUTO 31007KT 10SM SCT043 SCT048 OVC050 M08/M14 A2989 RMK AO2 T10771145
KAMN 122117Z AUTO 30011KT 10SM SCT041 BKN050 BKN060 M07/M15 A2989 RMK AO2 T10751150
KAMN 122057Z AUTO 31012G17KT 10SM SCT049 SCT060 M08/M16 A2988 RMK AO2 T10761162
KAMN 122037Z AUTO 32011G17KT 10SM OVC049 M07/M16 A2988 RMK AO2 T10701160
KAMN 122017Z AUTO 32013G18KT 10SM BKN049 OVC055 M07/M15 A2988 RMK AO2 T10711153
KAMN 121956Z AUTO 31013G19KT 10SM SCT043 BKN049 OVC055 M07/M16 A2988 RMK AO2 T10681159
KAMN 121936Z AUTO 29011G21KT 10SM SCT049 OVC055 M07/M16 A2988 RMK AO2 T10711158
KAMN 121916Z AUTO 32014G18KT 10SM SCT048 BKN065 M07/M16 A2988 RMK AO2 T10751165
KAMN 121856Z AUTO 31014G17KT 10SM SCT044 OVC050 M07/M15 A2988 RMK AO2 T10701155
KAMN 121836Z AUTO 31015G19KT 10SM SCT044 OVC050 M07/M16 A2988 RMK AO2 T10751160
KAMN 121816Z AUTO 31011G18KT 10SM BKN044 OVC050 M07/M15 A2988 RMK AO2 T10751154
KAMN 121756Z AUTO 33015G22KT 10SM SCT024 SCT034 OVC048 M07/M15 A2988 RMK AO2 T10721152 11071 21090
KAMN 121736Z AUTO 32012G20KT 10SM SCT036 BKN044 BKN055 M07/M15 A2989 RMK AO2 T10751152
KAMN 121716Z AUTO 32012G19KT 10SM SCT034 SCT043 BKN048 M08/M15 A2989 RMK AO2 T10801151
KAMN 121656Z AUTO 31015G21KT 10SM SCT033 BKN043 BKN049 M08/M15 A2990 RMK AO2 T10811149
KAMN 121635Z AUTO 32012G15KT 10SM SCT024 SCT034 BKN047 M08/M12 A2990 RMK AO2 T10801123
KAMN 121615Z AUTO 33010G14KT 4SM -SN SCT010 BKN035 OVC041 M09/M12 A2991 RMK AO2 T10871117
KAMN 121515Z AUTO 32010G16KT 4SM -SN SCT018 BKN027 OVC044 M08/M12 A2991 RMK AO2 T10851121
KAMN 121455Z AUTO 32008G14KT 10SM SCT026 SCT035 BKN044 M09/M13 A2990 RMK AO2 T10861130
KAMN 121435Z AUTO 32007KT 10SM SCT018 BKN029 OVC042 M09/M12 A2990 RMK AO2 T10871125
KAMN 121415Z AUTO 31009KT 10SM SCT017 BKN030 OVC038 M09/M12 A2989 RMK AO2 T10881125
KAMN 121355Z AUTO 32009G14KT 10SM SCT030 BKN035 OVC055 M09/M13 A2989 RMK AO2 T10861134
KAMN 121335Z AUTO 32007KT 10SM SCT028 BKN032 BKN049 M09/M13 A2989 RMK AO2 T10901135
KAMN 121315Z AUTO 31011G16KT 10SM SCT018 BKN034 OVC050 M09/M13 A2988 RMK AO2 T10871133
KAMN 121259Z AUTO 31007KT 10SM BKN034 BKN044 M08/M13 A2988 RMK AO2 T10851130
KAMN 121239Z AUTO 31010KT 10SM SCT044 M09/M13 A2987 RMK AO2 T10901132
KAMN 121218Z AUTO 31009KT 10SM CLR M09/M13 A2986 RMK AO2 T10861130
KAMN 121158Z AUTO 31009KT 10SM CLR M08/M13 A2985 RMK AO2 T10831130 11020 21083
KAMN 121138Z AUTO 30011G15KT 10SM CLR M08/M12 A2984 RMK AO2 T10811125
KAMN 121118Z AUTO 29009KT 10SM CLR M08/M12 A2983 RMK AO2 T10801124
KAMN 121058Z AUTO 31011G17KT 10SM CLR M08/M12 A2982 RMK AO2 T10771119
KAMN 121038Z AUTO 30010KT 10SM CLR M08/M12 A2982 RMK AO2 T10761116
KAMN 121018Z AUTO 31012G16KT 10SM CLR M07/M12 A2981 RMK AO2 T10711120
KAMN 120956Z AUTO 32014G24KT 10SM CLR M07/M12 A2981 RMK AO2 T10671120
KAMN 120936Z AUTO 32014G22KT 10SM CLR M06/M12 A2980 RMK AO2 T10651117
KAMN 120916Z AUTO 31013G20KT 10SM SCT060 M06/M11 A2979 RMK AO2 T10601115
KAMN 120855Z AUTO 31015G25KT 10SM BKN060 M05/M10 A2979 RMK AO2 T10541105
KAMN 120835Z AUTO 32019G24KT 10SM SCT026 SCT032 OVC060 M05/M09 A2978 RMK AO2 T10501088
KAMN 120815Z AUTO 32013G21KT 4SM -SN SCT024 OVC030 M04/M07 A2978 RMK AO2 T10431070
KAMN 120755Z AUTO 31015G22KT 10SM SCT026 BKN034 OVC050 M04/M07 A2976 RMK AO2 T10401072
KAMN 120735Z AUTO 30012G23KT 10SM SCT026 SCT045 OVC050 M03/M06 A2974 RMK AO2 T10351065
KAMN 120715Z AUTO 31013G26KT 10SM SCT018 SCT026 OVC050 M03/M06 A2974 RMK AO2 T10341065
KAMN 120655Z AUTO 30013G19KT 7SM -SN BKN018 BKN028 OVC050 M03/M05 A2973 RMK AO2 T10301049
KAMN 120635Z AUTO 31010G21KT 10SM -SN SCT021 BKN030 OVC055 M03/M05 A2972 RMK AO2 T10261047
KAMN 120615Z AUTO 31013G20KT 7SM -SN SCT014 BKN019 OVC029 M02/M04 A2971 RMK AO2 T10231040
KAMN 120559Z AUTO 32010G17KT 2SM -SN OVC015 M02/M03 A2971 RMK AO2 T10201027 11010 21020 410101070
KAMN 120539Z AUTO 31009G16KT 7SM -SN BKN015 BKN020 OVC048 M01/M03 A2971 RMK AO2 T10151026
KAMN 120519Z AUTO 31010KT 7SM -SN SCT011 BKN037 OVC046 M01/M02 A2970 RMK AO2 T10151025
KAMN 120459Z AUTO 31007KT 5SM -SN BKN010 BKN027 OVC046 M01/M02 A2970 RMK AO2 T10131020
KAMN 120435Z AUTO 30010KT 4SM -SN OVC008 M01/M01 A2970 RMK AO2 T10111015
KAMN 120418Z AUTO 29009KT 2 1/2SM -SN OVC006 M01/M01 A2970 RMK AO2 T10101012
KAMN 120358Z AUTO 29008KT 2 1/2SM -SN OVC006 M01/M01 A2970 RMK AO2 T10111014
KAMN 120338Z AUTO 27007KT 2 1/2SM -SN BKN008 OVC015 M01/M01 A2970 RMK AO2 T10101015
KAMN 120318Z AUTO 24004KT 3SM -SN SCT012 BKN017 OVC042 M01/M02 A2969 RMK AO2 T10121020
KAMN 120258Z AUTO 23004KT 5SM BR SCT012 OVC019 M01/M02 A2970 RMK AO2 T10121024
KAMN 120238Z AUTO 22005KT 7SM SCT016 OVC023 M01/M02 A2970 RMK AO2 T10131025
KAMN 120218Z AUTO 22006KT 7SM SCT016 OVC023 M01/M03 A2971 RMK AO2 T10141027
KAMN 120158Z AUTO 20006KT 10SM BKN016 OVC023 M01/M03 A2971 RMK AO2 T10151030
KAMN 120138Z AUTO 20005KT 10SM OVC023 M02/M03 A2972 RMK AO2 T10171030
KAMN 120117Z AUTO 20003KT 7SM OVC023 M02/M03 A2972 RMK AO2 T10201027
KAMN 120057Z AUTO 19004KT 7SM OVC025 M02/M03 A2972 RMK AO2 T10201027
KAMN 120037Z AUTO 19004KT 10SM BKN027 OVC035 M02/M03 A2973 RMK AO2 T10201027
KAMN 120017Z AUTO 18003KT 10SM OVC027 M02/M03 A2972 RMK AO2 T10201028
KAMN 112357Z AUTO 17004KT 10SM OVC027 M02/M03 A2973 RMK AO2 T10201027 11020 21050
KAMN 112337Z AUTO 14005KT 7SM OVC027 M02/M03 A2973 RMK AO2 T10201027
KAMN 112317Z AUTO 19004KT 10SM OVC029 M02/M03 A2973 RMK AO2 T10201027
KAMN 112257Z AUTO 17004KT 10SM SCT019 OVC029 M02/M03 A2973 RMK AO2 T10211028
KAMN 112235Z AUTO 15005KT 10SM BKN019 OVC029 M02/M03 A2974 RMK AO2 T10211030
KAMN 112219Z AUTO 16004KT 7SM OVC019 M02/M03 A2974 RMK AO2 T10211030
KAMN 112159Z AUTO 16004KT 7SM OVC017 M02/M03 A2974 RMK AO2 T10211030